Highlands, Texas
Current Conditions -  °F | °C
As of 8:50 PM on Saturday 24 Jan 2015 (Local Time) from KEFD Reporting Station
Broken Clouds Broken Clouds  
Wind Chill: 52°   Ceiling: 25000
Heat Index: 52°   Visibility: 10mi
Dew Point: 39°   Wind: 5mph
Humidity: 62%   Direction: 200°SSW
Pressure: 30.12"   Gusts: NA
Location:  29.82°N, 95.05°W
Report Text: KEFD 250250Z 20004KT 10SM BKN250 11/04 A3012
Loading
Personal Weather Stations






























Interactive Weather Map New forecast layout! Learn more

10-Day Weather Forecast

Advertisements
Track Severe Weather on mobile